Time;durP1;ratioP1;P1;durP2;ratioP2;P2;SDS_P1;SDS_P2;PMS_P1;PMS_P2;Temp;Humidity;BMP_temperature;BMP_pressure;BME280_temperature;BME280_humidity;BME280_pressure;Samples;Min_cycle;Max_cycle;Signal;HPM_P1;HPM_P2
2021/01/31 00:02:44;;;;;;;16.85;10.85;;;;;;;8.18;100.00;99815.34;4961428;28;20102;-76
2021/01/31 00:05:30;;;;;;;15.43;10.23;;;;;;;8.22;100.00;99813.56;4975908;28;20026;-75
2021/01/31 00:08:18;;;;;;;16.52;10.10;;;;;;;8.10;100.00;99825.09;4976282;28;20033;-75
2021/01/31 00:11:03;;;;;;;12.70;8.63;;;;;;;8.15;100.00;99827.59;4974698;28;20025;-75
2021/01/31 00:13:49;;;;;;;13.23;8.02;;;;;;;8.02;100.00;99828.75;4975736;28;20023;-75
2021/01/31 00:16:35;;;;;;;12.82;7.63;;;;;;;8.11;100.00;99823.31;4975778;28;20023;-75
2021/01/31 00:19:20;;;;;;;12.63;7.93;;;;;;;8.04;100.00;99825.22;4962410;28;20038;-74
2021/01/31 00:22:06;;;;;;;9.80;7.32;;;;;;;8.05;100.00;99826.09;4974788;28;20050;-75
2021/01/31 00:24:55;;;;;;;11.68;7.32;;;;;;;8.00;100.00;99827.94;4975724;28;20053;-75
2021/01/31 00:27:41;;;;;;;10.98;6.82;;;;;;;8.25;100.00;99834.38;4979049;28;20054;-75
2021/01/31 00:30:36;;;;;;;10.55;7.10;;;;;;;8.09;100.00;99832.94;4965250;28;20026;-76
2021/01/31 00:33:25;;;;;;;10.50;7.68;;;;;;;8.38;100.00;99831.44;4978216;28;20054;-76
2021/01/31 00:36:10;;;;;;;8.90;6.18;;;;;;;8.55;100.00;99831.03;4978925;28;20034;-75
2021/01/31 00:38:56;;;;;;;10.63;7.38;;;;;;;8.24;100.00;99832.66;4978341;28;20030;-75
2021/01/31 00:41:43;;;;;;;10.45;7.05;;;;;;;8.53;100.00;99827.63;4978405;28;20019;-74
2021/01/31 00:44:29;;;;;;;11.07;7.10;;;;;;;8.63;100.00;99831.72;4978461;28;20042;-76
2021/01/31 00:47:15;;;;;;;11.77;7.38;;;;;;;8.32;100.00;99830.75;4978229;28;20526;-75
2021/01/31 00:50:01;;;;;;;10.85;7.05;;;;;;;8.54;100.00;99830.22;4978921;28;20027;-75
2021/01/31 00:52:47;;;;;;;12.18;7.45;;;;;;;8.61;100.00;99830.91;4977934;28;20037;-75
2021/01/31 00:55:33;;;;;;;11.23;7.85;;;;;;;8.78;100.00;99840.06;4978350;28;20384;-75
2021/01/31 00:58:19;;;;;;;10.93;7.18;;;;;;;8.68;100.00;99830.72;4977772;28;20031;-75
2021/01/31 01:01:04;;;;;;;11.48;7.75;;;;;;;8.43;100.00;99839.16;4978208;28;20030;-75
2021/01/31 01:03:50;;;;;;;11.60;7.53;;;;;;;8.54;100.00;99837.16;4977791;28;20026;-75
2021/01/31 01:06:36;;;;;;;10.40;7.50;;;;;;;8.37;100.00;99839.31;4965533;28;20041;-74
2021/01/31 01:09:21;;;;;;;9.35;6.95;;;;;;;8.29;100.00;99836.03;4977828;28;20030;-75
2021/01/31 01:12:08;;;;;;;11.43;7.13;;;;;;;8.38;100.00;99834.06;4978183;28;20031;-75
2021/01/31 01:14:54;;;;;;;9.63;6.25;;;;;;;8.02;100.00;99832.22;4977834;28;20371;-74
2021/01/31 01:17:40;;;;;;;8.30;6.00;;;;;;;8.54;100.00;99839.78;4977843;28;20027;-74
2021/01/31 01:20:27;;;;;;;9.35;6.32;;;;;;;8.73;100.00;99836.69;4977909;28;20027;-74
2021/01/31 01:23:13;;;;;;;10.38;6.53;;;;;;;8.58;100.00;99836.19;4963932;28;20118;-74
2021/01/31 01:25:58;;;;;;;9.55;6.18;;;;;;;8.38;100.00;99834.06;4978370;28;20041;-75
2021/01/31 01:28:44;;;;;;;10.27;6.75;;;;;;;8.08;100.00;99832.06;4977302;28;20196;-74
2021/01/31 01:31:30;;;;;;;9.50;6.50;;;;;;;7.93;100.00;99840.25;4964067;28;20089;-75
2021/01/31 01:34:15;;;;;;;8.18;5.35;;;;;;;7.89;100.00;99829.91;4977190;28;20353;-75
2021/01/31 01:37:01;;;;;;;8.80;5.22;;;;;;;8.27;100.00;99829.97;4978188;28;20027;-75
2021/01/31 01:39:47;;;;;;;7.78;5.07;;;;;;;8.25;100.00;99823.94;4976995;28;20466;-75
2021/01/31 01:42:33;;;;;;;8.55;4.78;;;;;;;7.89;100.00;99829.91;4964465;28;20466;-74
2021/01/31 01:45:20;;;;;;;8.52;4.95;;;;;;;8.08;100.00;99824.25;4963592;28;20128;-75
2021/01/31 01:48:15;;;;;;;6.13;4.43;;;;;;;8.10;100.00;99830.31;4977825;28;20074;-75
2021/01/31 01:51:01;;;;;;;6.50;4.38;;;;;;;8.13;100.00;99825.03;4962888;28;20022;-75
2021/01/31 01:53:46;;;;;;;6.38;4.30;;;;;;;8.29;100.00;99828.19;4963597;28;20098;-75
2021/01/31 01:56:37;;;;;;;6.65;4.55;;;;;;;8.37;100.00;99828.88;4976842;28;20031;-75
2021/01/31 01:59:23;;;;;;;6.40;4.15;;;;;;;8.63;100.00;99827.38;4976848;28;20121;-74
2021/01/31 02:02:15;;;;;;;6.68;4.18;;;;;;;8.67;100.00;99829.03;4977297;28;20065;-75
2021/01/31 02:05:07;;;;;;;6.82;4.15;;;;;;;8.83;100.00;99817.31;4963769;28;20038;-75
2021/01/31 02:07:53;;;;;;;5.68;4.10;;;;;;;8.56;100.00;99817.13;4977541;28;20030;-75
2021/01/31 02:10:39;;;;;;;6.13;4.13;;;;;;;8.73;100.00;99821.03;4963470;28;20066;-75
2021/01/31 02:13:25;;;;;;;6.40;4.10;;;;;;;8.42;100.00;99825.28;4976821;28;20031;-75
2021/01/31 02:16:36;;;;;;;6.35;3.95;;;;;;;8.63;100.00;99821.28;4976413;28;20033;-75
2021/01/31 02:20:00;;;;;;;5.05;4.00;;;;;;;8.60;100.00;99824.81;4976538;28;20050;-75
2021/01/31 02:23:05;;;;;;;5.38;4.00;;;;;;;8.41;100.00;99827.91;4976311;28;20051;-75
2021/01/31 02:26:13;;;;;;;6.93;4.25;;;;;;;8.52;100.00;99825.91;4963974;28;20464;-75
2021/01/31 02:29:31;;;;;;;5.40;3.97;;;;;;;8.38;100.00;99830.59;4976623;28;20026;-75
2021/01/31 02:32:20;;;;;;;5.30;3.75;;;;;;;8.77;100.00;99834.88;4977189;28;20027;-75
2021/01/31 02:35:13;;;;;;;4.88;3.63;;;;;;;8.93;100.00;99838.84;4976759;28;20062;-75
2021/01/31 02:38:10;;;;;;;4.82;3.38;;;;;;;8.96;100.00;99833.53;4963313;28;20117;-75
2021/01/31 02:41:05;;;;;;;5.15;3.67;;;;;;;8.65;100.00;99837.78;4976273;28;20031;-75
2021/01/31 02:43:52;;;;;;;5.38;3.47;;;;;;;8.95;100.00;99829.19;4962895;28;20035;-75
2021/01/31 02:46:58;;;;;;;6.03;3.97;;;;;;;9.10;100.00;99824.47;4962817;28;20376;-75
2021/01/31 02:49:51;;;;;;;5.43;3.95;;;;;;;8.71;100.00;99827.19;4962708;28;20101;-75
2021/01/31 02:52:43;;;;;;;4.55;3.25;;;;;;;8.87;100.00;99825.91;4975806;28;20027;-75
2021/01/31 02:55:56;;;;;;;5.20;3.42;;;;;;;8.92;100.00;99813.63;4962738;28;20511;-75
2021/01/31 02:58:46;;;;;;;3.85;3.10;;;;;;;9.19;100.00;99812.88;4975781;28;20042;-74
2021/01/31 03:01:42;;;;;;;4.05;3.17;;;;;;;8.91;100.00;99809.25;4976909;28;20332;-75
2021/01/31 03:04:36;;;;;;;5.25;3.50;;;;;;;8.94;100.00;99817.91;4962108;28;20035;-75
2021/01/31 03:07:33;;;;;;;4.05;2.92;;;;;;;8.99;100.00;99828.22;4962542;28;20031;-74
2021/01/31 03:10:32;;;;;;;5.43;3.80;;;;;;;8.94;100.00;99825.75;4962606;28;20030;-76
2021/01/31 03:13:29;;;;;;;6.15;3.65;;;;;;;9.10;100.00;99824.47;4976235;28;20038;-73
2021/01/31 03:16:23;;;;;;;4.72;3.35;;;;;;;9.17;100.00;99827.75;4975060;28;20456;-73
2021/01/31 03:19:24;;;;;;;4.57;3.10;;;;;;;9.19;100.00;99831.19;4976401;28;20042;-74
2021/01/31 03:22:17;;;;;;;3.78;2.90;;;;;;;9.07;100.00;99834.97;4961622;28;20055;-74
2021/01/31 03:25:11;;;;;;;3.65;2.78;;;;;;;9.36;100.00;99835.06;4976133;28;20054;-74
2021/01/31 03:27:57;;;;;;;4.38;3.13;;;;;;;9.28;100.00;99823.09;4975553;28;20041;-75
2021/01/31 03:30:42;;;;;;;4.32;2.97;;;;;;;9.44;100.00;99834.84;4975610;28;20106;-74
2021/01/31 03:33:41;;;;;;;4.75;3.28;;;;;;;9.46;100.00;99833.06;4974829;28;20038;-74
2021/01/31 03:36:27;;;;;;;4.25;3.10;;;;;;;9.08;100.00;99838.44;4976112;28;20118;-75
2021/01/31 03:39:15;;;;;;;4.45;3.40;;;;;;;9.26;100.00;99845.81;4975295;28;20035;-76
2021/01/31 03:42:00;;;;;;;4.97;3.45;;;;;;;8.97;100.00;99840.47;4975705;28;20031;-75
2021/01/31 03:44:48;;;;;;;5.03;3.30;;;;;;;8.91;100.00;99851.06;4962552;28;20110;-75
2021/01/31 03:47:43;;;;;;;4.85;3.42;;;;;;;9.05;100.00;99847.22;4962487;28;20518;-74
2021/01/31 03:50:30;;;;;;;4.10;3.00;;;;;;;9.09;100.00;99846.22;4975934;28;20035;-75
2021/01/31 03:53:16;;;;;;;4.68;3.33;;;;;;;9.22;100.00;99852.00;4975398;28;20027;-75
2021/01/31 03:56:03;;;;;;;4.53;3.20;;;;;;;9.43;100.00;99852.31;4975789;28;20451;-75
2021/01/31 03:58:54;;;;;;;5.07;3.88;;;;;;;9.36;100.00;99852.50;4962232;28;20057;-75
2021/01/31 04:01:41;;;;;;;5.25;3.90;;;;;;;9.26;100.00;99848.41;4979759;28;20039;-75
2021/01/31 04:04:38;;;;;;;6.10;3.95;;;;;;;9.12;100.00;99855.75;4978804;28;20037;-75
2021/01/31 04:07:30;;;;;;;5.53;4.13;;;;;;;9.24;100.00;99855.44;4965773;28;20034;-75
2021/01/31 04:10:16;;;;;;;5.18;3.63;;;;;;;9.26;100.00;99859.75;4978975;28;20023;-75
2021/01/31 04:13:03;;;;;;;6.00;3.90;;;;;;;9.66;100.00;99860.38;4978722;28;20041;-75
2021/01/31 04:15:52;;;;;;;5.65;3.88;;;;;;;9.34;100.00;99863.03;4978683;28;20049;-75
2021/01/31 04:18:38;;;;;;;8.50;5.45;;;;;;;9.26;100.00;99864.09;4966030;28;20023;-75
2021/01/31 04:21:24;;;;;;;7.57;4.30;;;;;;;9.28;100.00;99867.53;4964614;28;20062;-75
2021/01/31 04:24:11;;;;;;;5.72;4.05;;;;;;;9.38;100.00;99869.88;4978833;28;20107;-74
2021/01/31 04:26:56;;;;;;;6.60;4.40;;;;;;;9.27;100.00;99866.69;4979126;28;20035;-74
2021/01/31 04:29:42;;;;;;;6.50;4.15;;;;;;;9.35;100.00;99872.56;4965493;28;20030;-75
2021/01/31 04:32:28;;;;;;;7.32;5.05;;;;;;;9.31;100.00;99870.94;4978576;28;20042;-75
2021/01/31 04:35:16;;;;;;;7.78;4.95;;;;;;;9.32;100.00;99867.41;4978396;28;20022;-75
2021/01/31 04:38:02;;;;;;;7.63;4.97;;;;;;;8.97;100.00;99864.81;4965194;28;20109;-75
2021/01/31 04:40:48;;;;;;;8.05;4.88;;;;;;;9.23;100.00;99859.81;4964446;28;20027;-74
2021/01/31 04:43:34;;;;;;;6.95;4.97;;;;;;;9.28;100.00;99859.69;4978467;28;20045;-74
2021/01/31 04:46:22;;;;;;;8.95;4.38;;;;;;;9.06;100.00;99853.31;4964569;28;20363;-75
2021/01/31 04:49:29;;;;;;;7.65;4.97;;;;;;;8.86;100.00;99853.81;4978459;28;20367;-75
2021/01/31 04:52:43;;;;;;;6.47;4.70;;;;;;;9.26;100.00;99851.91;4977427;28;20089;-75
2021/01/31 04:55:50;;;;;;;9.27;5.00;;;;;;;9.12;100.00;99855.75;4978702;28;20419;-75
2021/01/31 04:59:06;;;;;;;7.32;4.68;;;;;;;9.28;100.00;99852.72;4977752;28;20035;-75
2021/01/31 05:02:00;;;;;;;6.75;4.53;;;;;;;9.22;100.00;99852.88;4977248;28;20121;-74
2021/01/31 05:04:58;;;;;;;8.13;4.78;;;;;;;9.46;100.00;99833.94;4977676;28;20031;-75
2021/01/31 05:07:57;;;;;;;5.82;4.40;;;;;;;9.52;100.00;99830.28;4978546;28;20038;-74
2021/01/31 05:10:43;;;;;;;7.03;4.53;;;;;;;9.36;100.00;99826.34;4977284;28;20050;-74
2021/01/31 05:13:49;;;;;;;9.52;6.65;;;;;;;9.03;100.00;99828.13;4977090;28;20030;-75
2021/01/31 05:16:35;;;;;;;12.65;8.75;;;;;;;8.70;100.00;99825.47;4977876;28;20042;-75
2021/01/31 05:19:27;;;;;;;14.07;10.30;;;;;;;8.51;100.00;99825.06;4978230;28;20505;-75
2021/01/31 05:22:17;;;;;;;12.38;8.90;;;;;;;8.81;100.00;99818.25;4963408;28;20050;-74
2021/01/31 05:25:05;;;;;;;14.32;9.55;;;;;;;8.77;100.00;99819.22;4978281;28;20030;-76
2021/01/31 05:27:56;;;;;;;24.30;15.50;;;;;;;8.11;100.00;99812.91;4964354;28;20038;-75
2021/01/31 05:30:44;;;;;;;27.52;17.77;;;;;;;8.16;100.00;99818.91;4978232;28;20038;-74
2021/01/31 05:33:48;;;;;;;29.33;17.30;;;;;;;7.70;100.00;99831.16;4977871;28;20027;-75
2021/01/31 05:36:34;;;;;;;29.08;18.27;;;;;;;7.49;100.00;99831.59;4977855;28;20037;-75
2021/01/31 05:39:34;;;;;;;25.55;17.63;;;;;;;7.23;100.00;99839.03;4977722;28;20114;-75
2021/01/31 05:42:23;;;;;;;18.95;13.20;;;;;;;7.43;100.00;99834.31;4977162;28;20118;-75
2021/01/31 05:45:19;;;;;;;20.10;12.95;;;;;;;7.85;100.00;99830.84;4976707;28;20031;-75
2021/01/31 05:48:35;;;;;;;23.42;15.65;;;;;;;7.71;100.00;99836.34;4976883;28;20035;-75
2021/01/31 05:51:21;;;;;;;28.80;19.55;;;;;;;7.57;100.00;99845.34;4972040;28;20041;-75
2021/01/31 05:54:26;;;;;;;32.10;20.23;;;;;;;7.75;100.00;99855.38;4977067;28;20100;-75
2021/01/31 05:57:32;;;;;;;24.08;16.02;;;;;;;7.47;100.00;99846.41;4976644;28;20190;-75
2021/01/31 06:00:32;;;;;;;21.70;15.18;;;;;;;7.48;100.00;99854.16;4963717;28;20023;-75
2021/01/31 06:03:20;;;;;;;25.88;18.25;;;;;;;7.32;100.00;99860.56;4963331;28;20100;-75
2021/01/31 06:06:11;;;;;;;25.10;18.67;;;;;;;7.70;100.00;99860.72;4976326;28;20077;-75
2021/01/31 06:09:30;;;;;;;25.55;18.25;;;;;;;7.70;100.00;99863.31;4976503;28;20022;-74
2021/01/31 06:12:19;;;;;;;26.83;16.83;;;;;;;7.17;100.00;99873.88;4976825;28;20046;-74
2021/01/31 06:15:17;;;;;;;23.45;17.30;;;;;;;7.30;100.00;99872.75;4963863;28;20037;-75
2021/01/31 06:18:15;;;;;;;23.02;15.75;;;;;;;7.30;100.00;99871.88;4976170;28;20022;-74
2021/01/31 06:21:14;;;;;;;31.83;20.48;;;;;;;6.70;100.00;99862.50;4975609;28;20038;-75
2021/01/31 06:24:00;;;;;;;30.65;20.10;;;;;;;6.73;100.00;99862.44;4975975;28;20026;-75
2021/01/31 06:26:46;;;;;;;29.45;19.77;;;;;;;6.90;100.00;99856.09;4962779;28;20101;-76
2021/01/31 06:29:47;;;;;;;29.50;19.98;;;;;;;7.24;100.00;99872.84;4961941;28;20077;-75
2021/01/31 06:32:34;;;;;;;32.25;20.42;;;;;;;6.98;100.00;99876.78;4962555;28;20037;-75
2021/01/31 06:35:23;;;;;;;34.60;22.10;;;;;;;7.36;100.00;99882.22;4976206;28;20026;-75
2021/01/31 06:38:59;;;;;;;36.35;23.48;;;;;;;7.38;100.00;99881.31;4962564;28;20533;-76
2021/01/31 06:42:04;;;;;;;32.53;21.75;;;;;;;7.22;100.00;99887.66;4916311;29;20107;-76
2021/01/31 06:44:55;;;;;;;33.50;20.63;;;;;;;7.19;100.00;99890.31;4905120;29;20020;-75
2021/01/31 06:47:44;;;;;;;41.10;24.98;;;;;;;6.96;100.00;99889.00;4962118;28;20023;-75
2021/01/31 06:51:02;;;;;;;36.13;22.67;;;;;;;6.89;100.00;99880.41;4975832;28;20109;-75
2021/01/31 06:54:23;;;;;;;35.00;21.88;;;;;;;7.22;100.00;99876.38;4975607;28;20240;-76
2021/01/31 06:57:41;;;;;;;34.45;21.70;;;;;;;7.53;100.00;99898.41;4975279;28;20337;-74
2021/01/31 07:00:30;;;;;;;39.55;23.08;;;;;;;7.35;100.00;99910.00;4951312;28;20464;-76
2021/01/31 07:03:41;;;;;;;30.92;20.95;;;;;;;7.86;100.00;99919.50;4975843;28;20035;-75
2021/01/31 07:07:00;;;;;;;35.45;21.75;;;;;;;7.45;100.00;99927.22;4976019;28;20026;-76
2021/01/31 07:10:01;;;;;;;41.47;25.02;;;;;;;7.11;100.00;99938.22;4974975;28;20027;-75
2021/01/31 07:13:08;;;;;;;61.47;38.35;;;;;;;7.13;100.00;99937.31;4975675;28;20042;-75
2021/01/31 07:16:18;;;;;;;46.03;28.83;;;;;;;7.63;100.00;99942.50;4976058;28;20027;-75
2021/01/31 07:19:17;;;;;;;47.95;32.05;;;;;;;8.30;100.00;99942.97;4976009;28;20089;-75
2021/01/31 07:22:14;;;;;;;46.80;31.02;;;;;;;8.03;100.00;99964.34;4975628;28;20069;-75
2021/01/31 07:25:15;;;;;;;45.92;30.23;;;;;;;8.85;100.00;99963.53;4976396;28;20030;-74
2021/01/31 07:28:26;;;;;;;43.67;30.08;;;;;;;9.25;100.00;99959.94;4975417;28;20359;-74
2021/01/31 07:31:20;;;;;;;42.58;29.13;;;;;;;9.47;100.00;99968.13;4975163;28;20077;-76
2021/01/31 07:34:12;;;;;;;42.67;28.52;;;;;;;8.90;100.00;99972.13;4961733;28;20062;-75
2021/01/31 07:37:12;;;;;;;45.70;29.08;;;;;;;8.42;100.00;99976.66;4979671;28;20019;-74
2021/01/31 07:40:11;;;;;;;47.20;27.10;;;;;;;8.32;100.00;99988.16;4978592;28;20054;-75
2021/01/31 07:42:58;;;;;;;31.02;19.65;;;;;;;8.25;100.00;99985.69;4979276;28;20109;-74
2021/01/31 07:45:44;;;;;;;31.55;19.98;;;;;;;8.38;100.00;99980.22;4979148;28;20455;-74
2021/01/31 07:48:53;;;;;;;27.73;18.67;;;;;;;8.48;100.00;99983.50;4979545;28;20475;-74
2021/01/31 07:51:39;;;;;;;25.15;17.52;;;;;;;9.12;100.00;99991.63;4979088;28;20417;-74
2021/01/31 07:54:28;;;;;;;31.58;19.25;;;;;;;9.87;100.00;99988.00;4979484;28;20031;-75
2021/01/31 07:57:43;;;;;;;31.00;18.17;;;;;;;9.21;100.00;99987.03;4979710;28;20062;-75
2021/01/31 08:00:50;;;;;;;26.92;17.85;;;;;;;10.70;100.00;100001.41;4975030;28;20043;-75
2021/01/31 08:03:38;;;;;;;29.55;18.27;;;;;;;11.61;100.00;99994.19;4978567;28;20062;-75
2021/01/31 08:06:33;;;;;;;28.05;17.98;;;;;;;12.22;100.00;99999.03;4964502;28;20023;-76
2021/01/31 08:09:31;;;;;;;29.02;18.83;;;;;;;12.14;100.00;99988.78;4978456;28;20030;-76
2021/01/31 08:12:16;;;;;;;29.52;19.70;;;;;;;11.84;100.00;99984.63;4966272;28;20527;-76
2021/01/31 08:15:08;;;;;;;32.25;19.77;;;;;;;11.77;100.00;99988.34;4978191;28;20030;-75
2021/01/31 08:17:53;;;;;;;26.95;19.17;;;;;;;12.21;100.00;99990.28;4978451;28;20026;-76
2021/01/31 08:20:49;;;;;;;29.75;20.52;;;;;;;12.49;100.00;99985.75;4978098;28;20368;-75
2021/01/31 08:23:43;;;;;;;29.25;20.27;;;;;;;12.26;100.00;100005.91;4978044;28;20050;-76
2021/01/31 08:26:38;;;;;;;33.90;22.05;;;;;;;12.46;100.00;99999.00;4979510;28;20031;-74
2021/01/31 08:29:27;;;;;;;33.00;21.75;;;;;;;12.20;100.00;99999.09;4977974;28;20027;-74
2021/01/31 08:32:15;;;;;;;31.33;21.63;;;;;;;11.81;100.00;99992.59;4978662;28;20489;-76
2021/01/31 08:35:09;;;;;;;31.17;21.83;;;;;;;11.41;100.00;99989.53;4977803;28;20037;-75
2021/01/31 08:38:16;;;;;;;29.70;20.13;;;;;;;11.56;100.00;99989.03;4977708;28;20023;-75
2021/01/31 08:41:02;;;;;;;27.00;18.80;;;;;;;11.43;100.00;99994.72;4977285;28;20031;-75
2021/01/31 08:43:51;;;;;;;28.90;20.25;;;;;;;11.68;100.00;100006.16;4979209;28;20118;-75
2021/01/31 08:47:01;;;;;;;30.77;19.92;;;;;;;11.75;100.00;100012.94;4975746;28;20093;-75
2021/01/31 08:49:58;;;;;;;28.40;19.55;;;;;;;11.17;100.00;100021.78;4978433;28;20042;-75
2021/01/31 08:52:44;;;;;;;27.98;18.90;;;;;;;11.36;100.00;100024.69;4976843;28;20023;-76
2021/01/31 08:55:30;;;;;;;22.90;15.93;;;;;;;10.88;100.00;100029.66;4977925;28;20037;-75
2021/01/31 08:58:16;;;;;;;23.83;17.50;;;;;;;10.25;100.00;100055.06;4977982;28;20026;-75
2021/01/31 09:01:02;;;;;;;26.67;17.88;;;;;;;10.14;100.00;100076.25;4977957;28;20436;-75
2021/01/31 09:03:48;;;;;;;25.30;17.88;;;;;;;9.83;100.00;100082.28;4977232;28;20074;-75
2021/01/31 09:06:39;;;;;;;23.60;17.45;;;;;;;9.53;100.00;100099.56;4979191;28;20019;-75
2021/01/31 09:09:32;;;;;;;24.13;16.98;;;;;;;8.83;100.00;100103.72;4977343;28;20023;-75
2021/01/31 09:12:20;;;;;;;28.95;17.60;;;;;;;9.67;100.00;100094.88;4977224;28;20109;-74
2021/01/31 09:15:22;;;;;;;21.40;14.50;;;;;;;9.43;100.00;100098.06;4977299;28;20033;-75
2021/01/31 09:18:19;;;;;;;20.25;14.27;;;;;;;9.81;100.00;100095.38;4976879;28;20026;-74
2021/01/31 09:21:28;;;;;;;20.90;13.98;;;;;;;10.06;100.00;100093.06;4977172;28;20051;-76
2021/01/31 09:24:18;;;;;;;16.15;10.80;;;;;;;9.08;100.00;100084.03;4977833;28;20076;-77
2021/01/31 09:27:06;;;;;;;14.93;10.65;;;;;;;9.38;100.00;100083.38;4977813;28;20031;-76
2021/01/31 09:29:59;;;;;;;14.80;10.32;;;;;;;10.01;100.00;100076.59;4977577;28;20077;-75
2021/01/31 09:32:52;;;;;;;14.45;10.27;;;;;;;9.56;100.00;100075.09;4962743;28;20109;-75
2021/01/31 09:35:40;;;;;;;14.10;10.23;;;;;;;8.99;100.00;100068.56;4962665;28;20035;-75
2021/01/31 09:38:28;;;;;;;14.10;9.77;;;;;;;8.74;100.00;100067.34;4963317;28;20026;-76
2021/01/31 09:41:17;;;;;;;17.10;10.82;;;;;;;8.87;100.00;100060.97;4977090;28;20027;-75
2021/01/31 09:44:05;;;;;;;14.93;11.15;;;;;;;8.63;100.00;100064.97;4976999;28;20038;-75
2021/01/31 09:46:51;;;;;;;18.75;12.10;;;;;;;9.13;100.00;100066.53;4976325;28;20587;-77
2021/01/31 09:49:38;;;;;;;18.02;11.80;;;;;;;8.94;100.00;100055.63;4977812;28;20089;-74
2021/01/31 09:52:25;;;;;;;18.45;12.63;;;;;;;9.00;100.00;100059.81;4976120;28;20026;-76
2021/01/31 09:55:25;;;;;;;19.40;13.23;;;;;;;9.02;100.00;100058.91;4977202;28;20030;-76
2021/01/31 09:58:24;;;;;;;18.55;13.07;;;;;;;8.50;100.00;100063.50;4961854;28;20133;-75
2021/01/31 10:01:24;;;;;;;17.08;12.82;;;;;;;9.33;100.00;100054.72;4976584;28;20035;-76
2021/01/31 10:04:18;;;;;;;19.23;12.88;;;;;;;9.35;100.00;100052.06;4976689;28;20026;-75
2021/01/31 10:07:12;;;;;;;18.67;13.02;;;;;;;9.52;100.00;100039.44;4963944;28;20117;-75
2021/01/31 10:10:18;;;;;;;18.52;14.15;;;;;;;8.26;100.00;100050.03;4976045;28;20034;-75
2021/01/31 10:13:22;;;;;;;24.13;16.38;;;;;;;8.43;100.00;100050.56;4977082;28;20073;-75
2021/01/31 10:16:20;;;;;;;22.17;14.98;;;;;;;8.74;100.00;100051.69;4963487;28;20360;-75
2021/01/31 10:19:17;;;;;;;23.50;15.27;;;;;;;8.66;100.00;100069.25;4976740;28;20027;-75
2021/01/31 10:22:13;;;;;;;20.63;14.80;;;;;;;8.71;100.00;100064.81;4963118;28;20050;-75
2021/01/31 10:24:59;;;;;;;20.77;14.38;;;;;;;8.76;100.00;100057.75;4963781;28;20054;-75
2021/01/31 10:27:48;;;;;;;23.52;14.65;;;;;;;8.79;100.00;100065.50;4975916;28;20059;-75
2021/01/31 10:30:44;;;;;;;22.95;15.02;;;;;;;8.21;100.00;100060.59;4976613;28;20131;-75
2021/01/31 10:33:50;;;;;;;21.05;15.57;;;;;;;8.44;100.00;100052.31;4975512;28;20113;-75
2021/01/31 10:36:36;;;;;;;24.05;16.45;;;;;;;7.75;100.00;100053.53;4976608;28;20046;-75
2021/01/31 10:39:25;;;;;;;23.83;16.45;;;;;;;7.58;100.00;100060.78;4975566;28;20478;-75
2021/01/31 10:42:10;;;;;;;25.25;17.58;;;;;;;7.74;100.00;100063.13;4975794;28;20037;-75
2021/01/31 10:45:13;;;;;;;25.90;17.75;;;;;;;8.02;100.00;100053.94;4975459;28;20022;-75
2021/01/31 10:47:59;;;;;;;26.92;19.08;;;;;;;7.50;100.00;100060.91;4976187;28;20027;-74
2021/01/31 10:50:44;;;;;;;29.13;19.10;;;;;;;7.18;100.00;100054.44;4976267;28;20102;-75
2021/01/31 10:53:30;;;;;;;33.60;21.83;;;;;;;6.92;100.00;100048.75;4961851;28;20027;-75
2021/01/31 10:56:16;;;;;;;31.45;20.92;;;;;;;7.00;100.00;100044.28;4975657;28;20065;-75
2021/01/31 10:59:02;;;;;;;35.80;21.92;;;;;;;7.08;100.00;100047.66;4975285;28;20351;-75
2021/01/31 11:01:49;;;;;;;31.60;22.42;;;;;;;7.64;100.00;100045.03;4974933;28;20026;-75
2021/01/31 11:04:34;;;;;;;31.42;22.33;;;;;;;8.84;100.00;100048.00;4975667;28;20121;-75
2021/01/31 11:07:20;;;;;;;34.83;23.13;;;;;;;8.52;100.00;100053.03;4963226;28;20035;-75
2021/01/31 11:10:07;;;;;;;34.03;23.02;;;;;;;8.20;100.00;100047.53;4975236;28;20074;-75
2021/01/31 11:12:53;;;;;;;33.75;23.73;;;;;;;7.61;100.00;100058.13;4975163;28;20030;-75
2021/01/31 11:15:38;;;;;;;36.15;25.00;;;;;;;7.51;100.00;100054.78;4962576;28;20074;-76
2021/01/31 11:18:25;;;;;;;37.60;25.35;;;;;;;7.00;100.00;100044.28;4975345;28;20412;-75
2021/01/31 11:21:17;;;;;;;34.53;25.02;;;;;;;7.64;100.00;100038.06;4974784;28;20047;-75
2021/01/31 11:24:04;;;;;;;38.72;25.42;;;;;;;7.34;100.00;100033.34;4975242;28;20371;-74
2021/01/31 11:26:50;;;;;;;36.47;25.48;;;;;;;8.07;100.00;100026.00;4975629;28;20033;-75
2021/01/31 11:29:36;;;;;;;39.50;26.98;;;;;;;7.56;100.00;100032.13;4975518;28;20030;-74
2021/01/31 11:32:21;;;;;;;40.70;27.15;;;;;;;7.55;100.00;100034.78;4976363;28;20114;-75
2021/01/31 11:35:08;;;;;;;39.58;26.77;;;;;;;7.69;100.00;100036.28;4975007;28;20518;-76
2021/01/31 11:37:54;;;;;;;42.08;28.38;;;;;;;8.22;100.00;100046.63;4975033;28;20023;-76
2021/01/31 11:40:40;;;;;;;41.33;27.77;;;;;;;7.54;100.00;100030.41;4974607;28;20380;-76
2021/01/31 11:43:25;;;;;;;44.90;29.33;;;;;;;7.22;100.00;100027.47;4962034;28;20054;-75
2021/01/31 11:46:11;;;;;;;40.60;27.38;;;;;;;7.71;100.00;100023.19;4962166;28;20455;-76
2021/01/31 11:48:57;;;;;;;42.45;27.58;;;;;;;7.58;100.00;100022.53;4975688;28;20031;-75
2021/01/31 11:51:43;;;;;;;40.92;27.38;;;;;;;7.47;100.00;100023.63;4975340;28;20026;-75
2021/01/31 11:54:29;;;;;;;45.10;29.98;;;;;;;7.34;100.00;100024.66;4975430;28;20034;-76
2021/01/31 11:57:15;;;;;;;53.30;33.30;;;;;;;7.10;100.00;100025.91;4975004;28;20034;-76
2021/01/31 12:00:00;;;;;;;43.00;29.90;;;;;;;7.65;100.00;100033.72;4975347;28;20101;-76
2021/01/31 12:02:48;;;;;;;45.10;30.80;;;;;;;7.77;100.00;100031.78;4975038;28;20031;-75
2021/01/31 12:05:33;;;;;;;41.83;27.92;;;;;;;7.04;100.00;100035.56;4961198;28;20030;-76
2021/01/31 12:08:19;;;;;;;41.25;28.83;;;;;;;6.76;100.00;100032.47;4975307;28;20122;-75
2021/01/31 12:11:06;;;;;;;50.42;30.95;;;;;;;7.09;100.00;100034.63;4975308;28;20034;-76
2021/01/31 12:13:53;;;;;;;49.20;30.20;;;;;;;7.67;100.00;100037.19;4975053;28;20026;-74
2021/01/31 12:16:41;;;;;;;47.10;30.42;;;;;;;7.61;100.00;100030.31;4961524;28;20027;-75
2021/01/31 12:19:26;;;;;;;45.97;29.25;;;;;;;7.43;100.00;100038.41;4962009;28;20030;-74
2021/01/31 12:22:12;;;;;;;47.88;30.98;;;;;;;7.90;100.00;100032.41;4963645;28;20404;-75
2021/01/31 12:25:01;;;;;;;44.25;28.48;;;;;;;7.46;100.00;100042.72;4952523;28;20090;-76
2021/01/31 12:27:56;;;;;;;46.45;28.58;;;;;;;7.60;100.00;100035.56;4964918;28;20066;-76
2021/01/31 12:30:42;;;;;;;46.80;30.20;;;;;;;7.15;100.00;100037.09;4964091;28;20027;-75
2021/01/31 12:33:28;;;;;;;45.05;29.40;;;;;;;7.36;100.00;100028.97;4978160;28;20023;-75
2021/01/31 12:36:14;;;;;;;48.55;30.83;;;;;;;7.43;100.00;100027.16;4963901;28;20066;-75
2021/01/31 12:39:00;;;;;;;47.53;32.22;;;;;;;7.23;100.00;100030.03;4978482;28;20125;-76
2021/01/31 12:41:46;;;;;;;52.85;33.17;;;;;;;6.89;100.00;100044.44;4977869;28;20085;-76
2021/01/31 12:44:32;;;;;;;49.50;33.20;;;;;;;7.26;100.00;100036.94;4979054;28;20038;-75
2021/01/31 12:47:18;;;;;;;54.47;36.00;;;;;;;7.14;100.00;100034.53;4978452;28;20368;-76
2021/01/31 12:50:05;;;;;;;53.97;34.97;;;;;;;7.37;100.00;100042.88;4978874;28;20364;-74
2021/01/31 12:52:51;;;;;;;58.28;35.75;;;;;;;7.38;100.00;100040.25;4978431;28;20065;-76
2021/01/31 12:55:37;;;;;;;57.83;36.88;;;;;;;6.93;100.00;100038.31;4978302;28;20018;-75
2021/01/31 12:58:23;;;;;;;61.95;37.20;;;;;;;6.71;100.00;100038.63;4977496;28;20018;-75
2021/01/31 13:01:08;;;;;;;64.72;39.97;;;;;;;6.89;100.00;100031.41;4977737;28;20038;-75
2021/01/31 13:03:54;;;;;;;62.78;38.28;;;;;;;7.09;100.00;100032.00;4977336;28;20054;-75
2021/01/31 13:06:40;;;;;;;62.05;38.53;;;;;;;6.95;100.00;100030.47;4977920;28;20041;-75
2021/01/31 13:09:29;;;;;;;64.25;38.40;;;;;;;7.15;100.00;100028.47;4977392;28;20036;-75
2021/01/31 13:12:15;;;;;;;64.00;39.30;;;;;;;7.22;100.00;100027.47;4978506;28;20066;-76
2021/01/31 13:15:00;;;;;;;62.03;38.55;;;;;;;6.78;100.00;100022.88;4977548;28;20030;-76